createdAt,value
2022-10-26T00:00:12.345Z,11.26
2022-10-26T00:05:13.977Z,11.22
2022-10-26T00:10:15.768Z,11.22
2022-10-26T00:15:19.058Z,11.22
2022-10-26T00:20:20.895Z,11.22
2022-10-26T00:25:22.553Z,11.48
2022-10-26T00:30:24.416Z,11.67
2022-10-26T00:35:44.560Z,11.54
2022-10-26T00:40:48.025Z,11.65
2022-10-26T00:45:52.921Z,11.72
2022-10-26T00:50:58.765Z,11.79
2022-10-26T00:56:01.178Z,11.90
2022-10-26T01:01:03.415Z,11.89
2022-10-26T01:06:06.733Z,11.91
2022-10-26T01:11:08.642Z,12.06
2022-10-26T01:16:25.249Z,12.08
2022-10-26T01:21:41.522Z,12.17
2022-10-26T01:27:09.291Z,12.28
2022-10-26T01:32:38.714Z,12.38
2022-10-26T01:37:48.866Z,12.44
2022-10-26T01:42:54.878Z,12.50
2022-10-26T01:47:58.218Z,12.61
2022-10-26T01:52:59.933Z,12.60
2022-10-26T01:58:20.305Z,12.54
2022-10-26T02:03:37.901Z,12.57
2022-10-26T02:08:55.469Z,12.41
2022-10-26T02:14:21.909Z,12.45
2022-10-26T02:19:44.647Z,12.49
2022-10-26T02:24:50.527Z,12.38
2022-10-26T02:29:54.386Z,12.39
2022-10-26T02:34:58.739Z,12.29
2022-10-26T02:40:04.652Z,12.36
2022-10-26T02:45:12.691Z,12.38
2022-10-26T02:50:14.777Z,12.25
2022-10-26T02:55:27.478Z,12.29
2022-10-26T03:00:30.723Z,12.39
2022-10-26T03:05:33.087Z,12.36
2022-10-26T03:10:41.355Z,12.36
2022-10-26T03:15:43.198Z,12.27
2022-10-26T03:20:45.878Z,12.10
2022-10-26T03:25:47.984Z,12.10
2022-10-26T03:30:49.822Z,12.14
2022-10-26T03:35:56.682Z,12.20
2022-10-26T03:40:59.534Z,12.27
2022-10-26T03:46:01.555Z,12.15
2022-10-26T03:51:03.219Z,12.21
2022-10-26T03:56:05.246Z,12.23
2022-10-26T04:01:06.944Z,12.28
2022-10-26T04:06:08.793Z,12.29
2022-10-26T04:11:10.489Z,12.28
2022-10-26T04:16:12.142Z,12.25
2022-10-26T04:21:13.861Z,12.22
2022-10-26T04:26:15.752Z,12.24
2022-10-26T04:31:17.452Z,12.37
2022-10-26T04:36:19.180Z,12.42
2022-10-26T04:41:20.925Z,12.39
2022-10-26T04:46:22.697Z,12.41
2022-10-26T04:51:24.436Z,12.46
2022-10-26T04:56:26.168Z,12.48
2022-10-26T05:01:28.004Z,12.53
2022-10-26T05:06:30.317Z,12.57
2022-10-26T05:11:32.047Z,12.53
2022-10-26T05:16:33.828Z,12.75
2022-10-26T05:21:35.683Z,12.86
2022-10-26T05:26:37.439Z,12.62
2022-10-26T05:31:39.120Z,12.62
2022-10-26T05:36:40.796Z,12.85
2022-10-26T05:41:42.524Z,13.10
2022-10-26T05:46:46.869Z,13.41
2022-10-26T05:51:48.616Z,13.64
2022-10-26T05:56:50.740Z,13.71
2022-10-26T06:02:07.081Z,13.24
2022-10-26T06:07:14.681Z,12.99
2022-10-26T06:12:19.411Z,12.95
2022-10-26T06:17:42.108Z,12.92
2022-10-26T06:23:01.215Z,12.83
2022-10-26T06:28:21.943Z,12.81
2022-10-26T06:33:29.566Z,12.89
2022-10-26T06:38:34.477Z,12.99
2022-10-26T06:43:36.435Z,13.06
2022-10-26T06:48:46.964Z,13.13
2022-10-26T06:54:21.367Z,13.25
2022-10-26T06:59:37.017Z,13.30
2022-10-26T07:04:38.729Z,13.24
2022-10-26T07:09:40.483Z,13.32
2022-10-26T07:14:42.339Z,13.39
2022-10-26T07:19:44.865Z,13.45
2022-10-26T07:24:50.400Z,13.55
2022-10-26T07:29:52.085Z,13.66
2022-10-26T07:34:53.830Z,13.81
2022-10-26T07:39:55.695Z,13.96
2022-10-26T07:44:57.475Z,14.15
2022-10-26T07:49:59.408Z,14.31
2022-10-26T07:55:01.209Z,14.43
2022-10-26T08:00:04.960Z,14.53
2022-10-26T08:05:07.038Z,14.63
2022-10-26T08:10:09.584Z,14.76
2022-10-26T08:15:12.215Z,14.82
2022-10-26T08:20:13.967Z,14.88
2022-10-26T08:25:17.694Z,14.97
2022-10-26T08:30:22.307Z,14.99
2022-10-26T08:35:24.228Z,15.03
2022-10-26T08:40:30.202Z,15.09
2022-10-26T08:45:38.438Z,15.20
2022-10-26T08:50:53.762Z,15.29
2022-10-26T08:56:06.114Z,15.36
2022-10-26T09:01:08.852Z,15.46
2022-10-26T09:06:44.551Z,15.58
2022-10-26T09:12:05.287Z,15.68
2022-10-26T09:17:47.138Z,15.80
2022-10-26T09:23:08.325Z,15.89
2022-10-26T09:28:17.510Z,16.00
2022-10-26T09:33:27.262Z,16.05
2022-10-26T09:38:47.385Z,16.12
2022-10-26T09:43:58.086Z,16.20
2022-10-26T09:49:06.726Z,16.44
2022-10-26T09:54:16.065Z,16.51
2022-10-26T09:59:21.818Z,16.55
2022-10-26T10:04:24.045Z,16.68
2022-10-26T10:09:25.774Z,16.83
2022-10-26T10:14:32.596Z,16.90
2022-10-26T10:19:38.581Z,17.02
2022-10-26T10:24:53.434Z,17.17
2022-10-26T10:30:00.015Z,17.29
2022-10-26T10:35:24.077Z,17.37
2022-10-26T10:40:31.384Z,17.49
2022-10-26T10:45:34.763Z,17.55
2022-10-26T10:50:36.552Z,17.53
2022-10-26T10:55:39.085Z,17.50
2022-10-26T11:00:44.146Z,17.51
2022-10-26T11:06:00.310Z,17.45
2022-10-26T11:11:10.662Z,17.44
2022-10-26T11:16:16.782Z,17.50
2022-10-26T11:21:30.137Z,17.52
2022-10-26T11:26:43.572Z,17.52
2022-10-26T11:31:54.502Z,17.53
2022-10-26T11:37:03.621Z,17.54
2022-10-26T11:42:26.263Z,17.54
2022-10-26T11:48:11.290Z,17.58
2022-10-26T11:53:17.461Z,17.60
2022-10-26T11:58:22.991Z,17.70
2022-10-26T12:03:28.458Z,17.87
2022-10-26T12:08:35.661Z,17.92
2022-10-26T12:13:52.739Z,17.96
2022-10-26T12:18:59.323Z,18.03
2022-10-26T12:24:22.670Z,18.10
2022-10-26T12:29:46.303Z,18.20
2022-10-26T12:34:50.880Z,18.27
2022-10-26T12:39:52.682Z,18.28
2022-10-26T12:44:56.470Z,18.35
2022-10-26T12:50:18.926Z,18.48
2022-10-26T12:55:20.542Z,18.67
2022-10-26T13:00:25.224Z,18.62
2022-10-26T13:05:34.331Z,18.47
2022-10-26T13:10:38.277Z,18.38
2022-10-26T13:15:41.067Z,18.37
2022-10-26T13:21:01.405Z,18.38
2022-10-26T13:26:12.823Z,18.51
2022-10-26T13:31:41.591Z,18.78
2022-10-26T13:36:51.153Z,19.08
2022-10-26T13:41:55.515Z,19.18
2022-10-26T13:47:06.951Z,19.43
2022-10-26T13:52:21.260Z,19.82
2022-10-26T13:57:32.435Z,20.03
2022-10-26T14:02:34.178Z,20.12
2022-10-26T14:07:37.650Z,20.19
2022-10-26T14:12:39.539Z,19.96
2022-10-26T14:17:42.081Z,19.75
2022-10-26T14:22:44.093Z,19.61
2022-10-26T14:27:45.899Z,19.51
2022-10-26T14:32:48.244Z,19.43
2022-10-26T14:38:01.734Z,19.33
2022-10-26T14:43:05.458Z,19.30
2022-10-26T14:48:07.641Z,19.26
2022-10-26T14:53:18.758Z,19.03
2022-10-26T15:03:29.251Z,18.59
2022-10-26T15:08:52.631Z,18.49
2022-10-26T15:13:59.091Z,18.34
2022-10-26T15:19:11.140Z,18.27
2022-10-26T15:24:35.948Z,18.21
2022-10-26T15:29:44.438Z,18.07
2022-10-26T15:34:50.583Z,17.99
2022-10-26T15:39:52.228Z,17.85
2022-10-26T15:44:54.037Z,17.78
2022-10-26T15:49:55.815Z,17.69
2022-10-26T15:54:57.835Z,17.59
2022-10-26T15:59:59.627Z,17.46
2022-10-26T16:05:01.573Z,17.34
2022-10-26T16:10:03.481Z,17.31
2022-10-26T16:15:06.231Z,17.18
2022-10-26T16:20:16.482Z,17.13
2022-10-26T16:25:23.570Z,17.15
2022-10-26T16:30:30.111Z,17.19
2022-10-26T16:35:32.177Z,17.11
2022-10-26T16:40:33.922Z,17.01
2022-10-26T16:45:35.641Z,17.01
2022-10-26T16:50:37.383Z,16.99
2022-10-26T16:55:39.190Z,16.84
2022-10-26T17:00:40.997Z,16.69
2022-10-26T17:05:42.799Z,16.70
2022-10-26T17:10:44.467Z,16.67
2022-10-26T17:15:46.290Z,16.63
2022-10-26T17:20:51.637Z,16.53
2022-10-26T17:25:53.923Z,16.47
2022-10-26T17:31:12.026Z,16.41
2022-10-26T17:36:14.159Z,16.34
2022-10-26T17:41:18.249Z,16.28
2022-10-26T17:46:24.114Z,16.27
2022-10-26T17:51:27.490Z,16.18
2022-10-26T17:56:32.341Z,16.09
2022-10-26T18:01:34.248Z,16.07
2022-10-26T18:06:36.033Z,16.07
2022-10-26T18:11:37.665Z,16.10
2022-10-26T18:16:39.330Z,16.06
2022-10-26T18:21:41.006Z,16.05
2022-10-26T18:26:42.634Z,15.92
2022-10-26T18:31:44.986Z,15.90
2022-10-26T18:36:46.660Z,15.93
2022-10-26T18:41:48.414Z,15.83
2022-10-26T18:46:51.925Z,15.75
2022-10-26T18:51:53.801Z,15.63
2022-10-26T18:56:55.487Z,15.54
2022-10-26T19:01:57.327Z,15.45
2022-10-26T19:07:01.429Z,15.24
2022-10-26T19:12:03.962Z,15.07
2022-10-26T19:17:05.798Z,15.03
2022-10-26T19:22:07.702Z,15.06
2022-10-26T19:27:09.405Z,15.03
2022-10-26T19:32:12.302Z,14.97
2022-10-26T19:37:13.992Z,14.89
2022-10-26T19:42:15.697Z,14.80
2022-10-26T19:47:17.383Z,14.83
2022-10-26T19:57:20.734Z,14.62
2022-10-26T20:02:22.363Z,14.49
2022-10-26T20:07:24.005Z,14.24
2022-10-26T20:12:25.680Z,14.14
2022-10-26T20:17:28.702Z,14.24
2022-10-26T20:22:30.490Z,14.20
2022-10-26T20:27:32.149Z,14.01
2022-10-26T20:32:34.010Z,13.95
2022-10-26T20:37:36.079Z,13.99
2022-10-26T20:42:38.359Z,14.06
2022-10-26T20:47:40.817Z,14.12
2022-10-26T20:53:01.483Z,14.17
2022-10-26T20:58:09.753Z,14.13
2022-10-26T21:03:12.791Z,14.12
2022-10-26T21:08:14.492Z,14.11
2022-10-26T21:13:16.638Z,14.12
2022-10-26T21:18:18.442Z,14.12
2022-10-26T21:23:20.111Z,14.08
2022-10-26T21:28:21.867Z,13.84
2022-10-26T21:33:31.771Z,13.74
2022-10-26T21:38:34.394Z,13.68
2022-10-26T21:43:37.907Z,13.67
2022-10-26T21:48:42.428Z,13.63
2022-10-26T21:53:44.865Z,13.52
2022-10-26T21:58:47.312Z,13.39
2022-10-26T22:03:49.831Z,13.39
2022-10-26T22:08:56.327Z,13.44
2022-10-26T22:13:57.991Z,13.39
2022-10-26T22:19:04.893Z,13.38
2022-10-26T22:24:07.643Z,13.23
2022-10-26T22:29:10.013Z,13.23
2022-10-26T22:34:16.721Z,13.31
2022-10-26T22:39:18.797Z,13.34
2022-10-26T22:44:20.429Z,13.32
2022-10-26T22:49:22.089Z,13.15
2022-10-26T22:54:23.778Z,13.11
2022-10-26T22:59:25.584Z,13.08
2022-10-26T23:04:27.281Z,13.06
2022-10-26T23:09:29.202Z,12.97
2022-10-26T23:14:30.905Z,13.03
2022-10-26T23:19:32.562Z,13.06
2022-10-26T23:24:34.260Z,12.96
2022-10-26T23:29:36.062Z,12.94
2022-10-26T23:34:37.797Z,12.96
2022-10-26T23:39:39.675Z,12.74
2022-10-26T23:44:41.402Z,12.66
2022-10-26T23:49:43.040Z,12.30
2022-10-26T23:54:44.785Z,12.07
2022-10-26T23:59:46.477Z,12.16
